createdAt,value
2023-02-09T00:01:43.469Z,0.87
2023-02-09T00:04:13.819Z,0.85
2023-02-09T00:06:41.914Z,0.85
2023-02-09T00:09:10.073Z,0.74
2023-02-09T00:11:55.366Z,0.70
2023-02-09T00:14:23.451Z,0.69
2023-02-09T00:16:53.621Z,0.64
2023-02-09T00:19:22.684Z,0.71
2023-02-09T00:21:50.747Z,0.70
2023-02-09T00:24:18.917Z,0.71
2023-02-09T00:26:47.089Z,0.71
2023-02-09T00:29:15.563Z,0.70
2023-02-09T00:31:43.622Z,0.73
2023-02-09T00:34:13.090Z,0.78
2023-02-09T00:36:41.111Z,0.76
2023-02-09T00:39:08.990Z,0.67
2023-02-09T00:41:51.001Z,0.74
2023-02-09T00:44:19.033Z,0.73
2023-02-09T00:46:52.250Z,0.75
2023-02-09T00:49:22.196Z,0.70
2023-02-09T00:51:50.318Z,0.71
2023-02-09T00:54:18.468Z,0.71
2023-02-09T00:56:46.736Z,0.71
2023-02-09T00:59:16.565Z,0.67
2023-02-09T01:01:44.617Z,0.61
2023-02-09T01:04:13.116Z,0.63
2023-02-09T01:06:43.815Z,0.65
2023-02-09T01:09:11.858Z,0.60
2023-02-09T01:11:40.262Z,0.56
2023-02-09T01:14:09.894Z,0.51
2023-02-09T01:16:37.821Z,0.53
2023-02-09T01:19:05.729Z,0.51
2023-02-09T01:21:33.978Z,0.56
2023-02-09T01:24:03.311Z,0.56
2023-02-09T01:26:31.324Z,0.55
2023-02-09T01:28:59.292Z,0.53
2023-02-09T01:31:29.403Z,0.53
2023-02-09T01:33:59.152Z,0.48
2023-02-09T01:36:27.534Z,0.45
2023-02-09T01:38:57.586Z,0.48
2023-02-09T01:41:27.800Z,0.42
2023-02-09T01:43:58.383Z,0.41
2023-02-09T01:46:27.799Z,0.42
2023-02-09T01:49:02.784Z,0.41
2023-02-09T01:51:34.430Z,0.39
2023-02-09T01:54:07.934Z,0.40
2023-02-09T01:56:40.203Z,0.37
2023-02-09T01:59:09.035Z,0.32
2023-02-09T02:01:37.480Z,0.27
2023-02-09T02:04:06.785Z,0.24
2023-02-09T02:06:35.108Z,0.20
2023-02-09T02:09:10.493Z,0.23
2023-02-09T02:11:41.215Z,0.26
2023-02-09T02:14:27.049Z,0.30
2023-02-09T02:17:07.669Z,0.22
2023-02-09T02:20:12.710Z,0.26
2023-02-09T02:23:00.841Z,0.25
2023-02-09T02:26:17.041Z,0.25
2023-02-09T02:29:12.785Z,0.29
2023-02-09T02:32:11.233Z,0.29
2023-02-09T02:34:46.575Z,0.20
2023-02-09T02:37:33.931Z,0.18
2023-02-09T02:40:10.484Z,0.15
2023-02-09T02:42:49.363Z,0.18
2023-02-09T02:45:29.592Z,0.18
2023-02-09T02:48:06.629Z,0.22
2023-02-09T02:50:39.917Z,0.20
2023-02-09T02:53:11.979Z,0.21
2023-02-09T02:55:40.691Z,0.22
2023-02-09T02:58:13.218Z,0.23
2023-02-09T03:00:45.568Z,0.24
2023-02-09T03:03:18.321Z,0.25
2023-02-09T03:05:47.244Z,0.20
2023-02-09T03:08:15.218Z,0.18
2023-02-09T03:10:44.544Z,0.22
2023-02-09T03:13:30.245Z,0.22
2023-02-09T03:16:16.827Z,0.27
2023-02-09T03:18:58.448Z,0.25
2023-02-09T03:21:33.131Z,0.23
2023-02-09T03:24:05.677Z,0.23
2023-02-09T03:26:41.187Z,0.16
2023-02-09T03:29:10.427Z,0.16
2023-02-09T03:31:39.621Z,0.17
2023-02-09T03:34:11.162Z,0.23
2023-02-09T03:36:40.612Z,0.25
2023-02-09T03:39:08.590Z,0.25
2023-02-09T03:41:38.024Z,0.24
2023-02-09T03:44:23.904Z,0.26
2023-02-09T03:46:51.945Z,0.23
2023-02-09T03:49:21.558Z,0.23
2023-02-09T03:51:49.743Z,0.19
2023-02-09T03:54:17.812Z,0.20
2023-02-09T03:56:48.014Z,0.28
2023-02-09T03:59:16.120Z,0.31
2023-02-09T04:01:44.134Z,0.31
2023-02-09T04:04:12.057Z,0.28
2023-02-09T04:06:41.451Z,0.29
2023-02-09T04:09:09.560Z,0.36
2023-02-09T04:11:37.670Z,0.35
2023-02-09T04:14:06.544Z,0.34
2023-02-09T04:16:34.582Z,0.34
2023-02-09T04:19:02.591Z,0.36
2023-02-09T04:21:30.864Z,0.39
2023-02-09T04:24:00.165Z,0.43
2023-02-09T04:26:28.469Z,0.42
2023-02-09T04:28:56.424Z,0.41
2023-02-09T04:31:24.587Z,0.39
2023-02-09T04:33:52.958Z,0.37
2023-02-09T04:36:23.032Z,0.43
2023-02-09T04:38:51.150Z,0.39
2023-02-09T04:41:20.461Z,0.38
2023-02-09T04:43:48.425Z,0.39
2023-02-09T04:46:18.278Z,0.43
2023-02-09T04:48:46.970Z,0.46
2023-02-09T04:51:15.247Z,0.49
2023-02-09T04:53:43.092Z,0.45
2023-02-09T04:56:15.327Z,0.51
2023-02-09T04:59:02.629Z,0.50
2023-02-09T05:01:31.681Z,0.50
2023-02-09T05:03:59.934Z,0.46
2023-02-09T05:06:28.194Z,0.51
2023-02-09T05:08:56.018Z,0.51
2023-02-09T05:11:25.500Z,0.50
2023-02-09T05:13:55.031Z,0.55
2023-02-09T05:16:22.953Z,0.60
2023-02-09T05:18:51.426Z,0.57
2023-02-09T05:21:19.483Z,0.56
2023-02-09T05:23:47.586Z,0.52
2023-02-09T05:26:15.521Z,0.55
2023-02-09T05:28:43.491Z,0.59
2023-02-09T05:31:12.746Z,0.63
2023-02-09T05:33:40.766Z,0.63
2023-02-09T05:36:12.259Z,0.62
2023-02-09T05:38:40.624Z,0.62
2023-02-09T05:41:10.182Z,0.64
2023-02-09T05:43:38.440Z,0.67
2023-02-09T05:46:08.369Z,0.63
2023-02-09T05:48:38.007Z,0.75
2023-02-09T05:51:06.255Z,0.76
2023-02-09T05:53:34.169Z,0.75
2023-02-09T05:56:02.719Z,0.70
2023-02-09T05:58:30.592Z,0.70
2023-02-09T06:00:58.647Z,0.74
2023-02-09T06:03:26.708Z,0.72
2023-02-09T06:05:56.013Z,0.72
2023-02-09T06:08:24.055Z,0.77
2023-02-09T06:10:51.948Z,0.83
2023-02-09T06:13:19.989Z,0.89
2023-02-09T06:15:48.070Z,0.94
2023-02-09T06:18:16.111Z,0.91
2023-02-09T06:20:44.425Z,0.92
2023-02-09T06:23:14.045Z,0.98
2023-02-09T06:25:42.385Z,0.99
2023-02-09T06:28:10.263Z,1.04
2023-02-09T06:30:38.271Z,1.05
2023-02-09T06:33:06.201Z,1.10
2023-02-09T06:35:33.995Z,1.15
2023-02-09T06:38:02.098Z,1.10
2023-02-09T06:40:31.646Z,1.08
2023-02-09T06:42:59.482Z,1.17
2023-02-09T06:45:27.413Z,1.20
2023-02-09T06:47:55.585Z,1.16
2023-02-09T06:50:23.916Z,1.17
2023-02-09T06:52:52.169Z,1.22
2023-02-09T06:55:20.182Z,1.20
2023-02-09T06:57:49.475Z,1.24
2023-02-09T07:00:18.473Z,1.26
2023-02-09T07:02:46.661Z,1.27
2023-02-09T07:05:17.385Z,1.25
2023-02-09T07:07:46.550Z,1.34
2023-02-09T07:10:18.249Z,1.29
2023-02-09T07:12:46.333Z,1.25
2023-02-09T07:15:16.454Z,1.29
2023-02-09T07:17:44.537Z,1.34
2023-02-09T07:20:13.267Z,1.40
2023-02-09T07:22:41.180Z,1.44
2023-02-09T07:25:09.295Z,1.49
2023-02-09T07:27:37.259Z,1.57
2023-02-09T07:30:05.711Z,1.61
2023-02-09T07:32:38.537Z,1.76
2023-02-09T07:35:07.353Z,1.73
2023-02-09T07:37:36.198Z,1.78
2023-02-09T07:40:04.434Z,1.80
2023-02-09T07:42:32.524Z,1.76
2023-02-09T07:45:00.350Z,1.94
2023-02-09T07:47:28.339Z,2.06
2023-02-09T07:49:57.634Z,2.13
2023-02-09T07:52:25.683Z,2.19
2023-02-09T07:54:53.887Z,2.20
2023-02-09T07:57:21.801Z,2.33
2023-02-09T07:59:49.717Z,2.42
2023-02-09T08:02:27.177Z,2.44
2023-02-09T08:04:59.992Z,2.50
2023-02-09T08:07:28.789Z,2.49
2023-02-09T08:09:56.919Z,2.55
2023-02-09T08:12:48.419Z,2.66
2023-02-09T08:15:18.279Z,2.69
2023-02-09T08:17:46.179Z,2.72
2023-02-09T08:20:18.911Z,2.71
2023-02-09T08:22:50.201Z,2.73
2023-02-09T08:25:21.504Z,2.74
2023-02-09T08:27:50.956Z,2.80
2023-02-09T08:30:23.035Z,2.88
2023-02-09T08:32:50.933Z,2.99
2023-02-09T08:35:20.553Z,3.08
2023-02-09T08:37:48.599Z,3.15
2023-02-09T08:40:16.757Z,3.27
2023-02-09T08:42:44.968Z,3.10
2023-02-09T08:45:13.175Z,3.25
2023-02-09T08:47:41.200Z,3.37
2023-02-09T08:50:10.307Z,3.28
2023-02-09T08:52:39.509Z,3.31
2023-02-09T08:55:10.488Z,3.27
2023-02-09T08:57:44.493Z,3.20
2023-02-09T09:00:14.359Z,3.29
2023-02-09T09:02:42.417Z,3.41
2023-02-09T09:05:10.398Z,3.60
2023-02-09T09:07:40.180Z,3.66
2023-02-09T09:10:09.884Z,3.54
2023-02-09T09:12:38.018Z,3.56
2023-02-09T09:15:07.168Z,3.66
2023-02-09T09:17:35.026Z,3.81
2023-02-09T09:20:02.907Z,3.90
2023-02-09T09:22:30.774Z,4.04
2023-02-09T09:25:00.075Z,3.96
2023-02-09T09:27:28.290Z,3.91
2023-02-09T09:29:56.347Z,4.10
2023-02-09T09:32:25.130Z,4.11
2023-02-09T09:34:54.905Z,4.02
2023-02-09T09:37:23.124Z,4.19
2023-02-09T09:39:51.764Z,4.10
2023-02-09T09:42:26.479Z,4.02
2023-02-09T09:44:55.287Z,3.92
2023-02-09T09:47:34.970Z,3.97
2023-02-09T09:50:03.181Z,4.06
2023-02-09T09:52:38.146Z,4.05
2023-02-09T09:55:09.387Z,4.24
2023-02-09T09:57:44.601Z,4.16
2023-02-09T10:00:20.152Z,4.33
2023-02-09T10:02:48.555Z,4.43
2023-02-09T10:05:20.707Z,4.45
2023-02-09T10:07:56.006Z,4.42
2023-02-09T10:10:38.028Z,4.67
2023-02-09T10:13:17.145Z,4.60
2023-02-09T10:15:48.770Z,4.56
2023-02-09T10:18:18.354Z,4.48
2023-02-09T10:20:50.010Z,4.83
2023-02-09T10:23:21.254Z,4.94
2023-02-09T10:26:21.984Z,5.02
2023-02-09T10:28:53.083Z,4.94
2023-02-09T10:31:26.001Z,5.12
2023-02-09T10:33:58.752Z,5.12
2023-02-09T10:36:29.994Z,5.09
2023-02-09T10:39:13.836Z,5.01
2023-02-09T10:41:43.872Z,5.00
2023-02-09T10:44:19.190Z,4.89
2023-02-09T10:46:48.241Z,5.08
2023-02-09T10:49:31.774Z,5.13
2023-02-09T10:52:08.252Z,5.26
2023-02-09T10:54:36.344Z,5.27
2023-02-09T10:57:20.849Z,5.56
2023-02-09T10:59:54.647Z,5.74
2023-02-09T11:02:37.740Z,5.77
2023-02-09T11:05:30.735Z,5.67
2023-02-09T11:08:04.268Z,5.57
2023-02-09T11:10:35.837Z,5.76
2023-02-09T11:13:04.003Z,5.74
2023-02-09T11:15:40.815Z,5.86
2023-02-09T11:18:17.030Z,5.78
2023-02-09T11:20:52.774Z,5.74
2023-02-09T11:23:46.545Z,6.00
2023-02-09T11:26:24.326Z,6.06
2023-02-09T11:28:58.538Z,5.93
2023-02-09T11:31:55.688Z,5.71
2023-02-09T11:34:43.949Z,5.57
2023-02-09T11:37:26.766Z,5.47
2023-02-09T11:40:03.132Z,5.42
2023-02-09T11:42:46.508Z,5.41
2023-02-09T11:45:21.723Z,5.54
2023-02-09T11:48:00.049Z,5.52
2023-02-09T11:50:32.267Z,5.71
2023-02-09T11:53:04.905Z,5.91
2023-02-09T11:55:38.483Z,5.93
2023-02-09T11:58:30.268Z,5.83
2023-02-09T12:01:14.708Z,5.77
2023-02-09T12:03:56.564Z,5.66
2023-02-09T12:06:26.496Z,5.76
2023-02-09T12:09:04.628Z,5.80
2023-02-09T12:11:43.634Z,5.88
2023-02-09T12:14:36.594Z,5.97
2023-02-09T12:17:12.811Z,5.91
2023-02-09T12:19:45.096Z,5.88
2023-02-09T12:22:46.662Z,5.95
2023-02-09T12:25:22.439Z,5.93
2023-02-09T12:28:16.982Z,6.05
2023-02-09T12:31:03.068Z,6.11
2023-02-09T12:33:33.226Z,6.36
2023-02-09T12:36:05.816Z,6.44
2023-02-09T12:38:55.433Z,6.35
2023-02-09T12:41:26.722Z,6.29
2023-02-09T12:44:27.560Z,6.28
2023-02-09T12:46:58.280Z,6.21
2023-02-09T12:49:33.983Z,6.29
2023-02-09T12:52:19.419Z,6.03
2023-02-09T12:54:51.087Z,6.22
2023-02-09T12:58:12.576Z,6.33
2023-02-09T13:00:46.521Z,6.32
2023-02-09T13:03:19.385Z,6.27
2023-02-09T13:05:49.279Z,6.37
2023-02-09T13:08:29.161Z,6.11
2023-02-09T13:11:02.959Z,6.07
2023-02-09T13:13:47.321Z,5.82
2023-02-09T13:16:51.645Z,6.01
2023-02-09T13:19:47.062Z,6.01
2023-02-09T13:22:33.936Z,6.16
2023-02-09T13:25:14.233Z,6.03
2023-02-09T13:27:46.947Z,5.95
2023-02-09T13:30:25.219Z,5.92
2023-02-09T13:33:07.185Z,6.07
2023-02-09T13:35:44.251Z,6.00
2023-02-09T13:38:17.695Z,6.06
2023-02-09T13:40:53.681Z,6.19
2023-02-09T13:43:28.538Z,6.21
2023-02-09T13:45:58.454Z,6.19
2023-02-09T13:48:31.999Z,6.22
2023-02-09T13:51:03.256Z,6.27
2023-02-09T13:53:32.868Z,6.19
2023-02-09T13:56:02.374Z,6.14
2023-02-09T13:58:33.172Z,6.18
2023-02-09T14:01:04.515Z,6.13
2023-02-09T14:03:36.215Z,5.99
2023-02-09T14:06:10.410Z,6.18
2023-02-09T14:08:41.963Z,6.29
2023-02-09T14:11:41.125Z,6.15
2023-02-09T14:14:13.952Z,6.05
2023-02-09T14:16:52.977Z,6.15
2023-02-09T14:19:27.774Z,6.23
2023-02-09T14:21:55.721Z,5.99
2023-02-09T14:24:24.476Z,5.97
2023-02-09T14:27:04.021Z,6.05
2023-02-09T14:29:34.123Z,6.06
2023-02-09T14:32:05.268Z,6.19
2023-02-09T14:34:36.425Z,6.22
2023-02-09T14:37:26.877Z,6.15
2023-02-09T14:39:56.622Z,6.29
2023-02-09T14:42:26.077Z,6.31
2023-02-09T14:44:55.841Z,6.19
2023-02-09T14:47:32.601Z,6.20
2023-02-09T14:50:00.893Z,6.24
2023-02-09T14:52:32.733Z,6.22
2023-02-09T14:55:04.698Z,6.23
2023-02-09T14:57:36.603Z,6.14
2023-02-09T15:00:16.572Z,6.20
2023-02-09T15:02:44.846Z,6.23
2023-02-09T15:05:13.226Z,6.13
2023-02-09T15:07:43.945Z,6.14
2023-02-09T15:10:22.193Z,6.14
2023-02-09T15:12:51.883Z,6.11
2023-02-09T15:15:22.166Z,6.20
2023-02-09T15:17:50.516Z,6.20
2023-02-09T15:20:21.471Z,6.16
2023-02-09T15:22:49.350Z,5.92
2023-02-09T15:25:18.284Z,5.88
2023-02-09T15:27:51.791Z,5.98
2023-02-09T15:30:23.229Z,6.06
2023-02-09T15:32:51.303Z,6.00
2023-02-09T15:35:21.436Z,5.89
2023-02-09T15:37:52.856Z,5.77
2023-02-09T15:40:39.080Z,5.68
2023-02-09T15:43:30.589Z,5.64
2023-02-09T15:46:17.438Z,5.57
2023-02-09T15:48:45.595Z,5.62
2023-02-09T15:51:14.000Z,5.60
2023-02-09T15:53:42.355Z,5.48
2023-02-09T15:56:10.901Z,5.57
2023-02-09T15:58:42.267Z,5.49
2023-02-09T16:01:14.304Z,5.52
2023-02-09T16:03:42.212Z,5.46
2023-02-09T16:06:16.403Z,5.49
2023-02-09T16:08:45.428Z,5.54
2023-02-09T16:11:19.687Z,5.66
2023-02-09T16:13:47.659Z,5.69
2023-02-09T16:16:18.395Z,5.52
2023-02-09T16:18:46.826Z,5.63
2023-02-09T16:21:21.548Z,5.59
2023-02-09T16:23:49.670Z,5.53
2023-02-09T16:26:19.335Z,5.44
2023-02-09T16:28:48.237Z,5.46
2023-02-09T16:31:17.937Z,5.58
2023-02-09T16:33:46.204Z,5.60
2023-02-09T16:36:16.766Z,5.57
2023-02-09T16:38:45.023Z,5.60
2023-02-09T16:41:29.455Z,5.68
2023-02-09T16:43:57.401Z,5.61
2023-02-09T16:46:26.885Z,5.63
2023-02-09T16:48:55.413Z,5.51
2023-02-09T16:51:23.610Z,5.33
2023-02-09T16:53:52.766Z,5.30
2023-02-09T16:56:21.619Z,5.43
2023-02-09T16:58:49.941Z,5.27
2023-02-09T17:01:19.655Z,5.33
2023-02-09T17:03:51.661Z,5.47
2023-02-09T17:06:24.058Z,5.36
2023-02-09T17:08:53.288Z,5.30
2023-02-09T17:11:23.210Z,5.36
2023-02-09T17:13:54.578Z,5.41
2023-02-09T17:16:26.543Z,5.56
2023-02-09T17:19:00.552Z,5.40
2023-02-09T17:21:31.433Z,5.43
2023-02-09T17:23:59.854Z,5.62
2023-02-09T17:26:28.324Z,5.65
2023-02-09T17:28:57.244Z,5.72
2023-02-09T17:31:27.789Z,5.62
2023-02-09T17:33:59.592Z,5.58
2023-02-09T17:36:30.340Z,5.63
2023-02-09T17:39:01.226Z,5.67
2023-02-09T17:41:34.189Z,5.66
2023-02-09T17:44:24.228Z,5.68
2023-02-09T17:46:57.743Z,5.74
2023-02-09T17:49:27.156Z,5.83
2023-02-09T17:51:55.342Z,5.75
2023-02-09T17:54:23.355Z,5.74
2023-02-09T17:56:51.316Z,5.74
2023-02-09T17:59:22.902Z,5.56
2023-02-09T18:01:55.297Z,5.63
2023-02-09T18:04:26.910Z,5.76
2023-02-09T18:06:57.853Z,5.78
2023-02-09T18:09:25.961Z,5.77
2023-02-09T18:12:02.197Z,5.86
2023-02-09T18:14:34.937Z,5.76
2023-02-09T18:17:03.544Z,5.61
2023-02-09T18:19:33.043Z,5.56
2023-02-09T18:22:05.833Z,5.65
2023-02-09T18:24:35.501Z,5.64
2023-02-09T18:27:03.642Z,5.65
2023-02-09T18:29:31.957Z,5.60
2023-02-09T18:32:00.940Z,5.67
2023-02-09T18:34:29.291Z,5.67
2023-02-09T18:36:57.279Z,5.57
2023-02-09T18:39:26.532Z,5.67
2023-02-09T18:41:55.365Z,5.68
2023-02-09T18:44:36.730Z,5.72
2023-02-09T18:47:06.772Z,5.69
2023-02-09T18:49:35.663Z,5.79
2023-02-09T18:52:19.838Z,5.73
2023-02-09T18:54:49.232Z,5.80
2023-02-09T18:57:17.182Z,5.76
2023-02-09T18:59:47.825Z,5.81
2023-02-09T19:02:16.827Z,5.79
2023-02-09T19:04:45.045Z,5.76
2023-02-09T19:07:16.564Z,5.66
2023-02-09T19:09:46.037Z,5.62
2023-02-09T19:12:15.360Z,5.71
2023-02-09T19:14:47.573Z,5.81
2023-02-09T19:17:17.228Z,5.76
2023-02-09T19:19:46.040Z,5.76
2023-02-09T19:22:16.138Z,5.79
2023-02-09T19:24:44.429Z,5.82
2023-02-09T19:27:12.551Z,5.78
2023-02-09T19:29:42.577Z,5.85
2023-02-09T19:32:10.784Z,5.82
2023-02-09T19:34:41.012Z,5.84
2023-02-09T19:37:09.655Z,5.90
2023-02-09T19:39:38.790Z,5.91
2023-02-09T19:42:07.169Z,5.92
2023-02-09T19:44:36.348Z,5.90
2023-02-09T19:47:05.599Z,5.94
2023-02-09T19:49:34.413Z,5.83
2023-02-09T19:52:02.557Z,5.73
2023-02-09T19:54:30.470Z,5.68
2023-02-09T19:56:58.422Z,5.62
2023-02-09T19:59:26.455Z,5.45
2023-02-09T20:01:54.324Z,5.30
2023-02-09T20:04:23.971Z,5.24
2023-02-09T20:06:51.909Z,5.24
2023-02-09T20:09:19.727Z,5.13
2023-02-09T20:11:50.593Z,5.16
2023-02-09T20:14:18.770Z,5.19
2023-02-09T20:16:46.714Z,5.29
2023-02-09T20:19:15.788Z,5.33
2023-02-09T20:21:45.103Z,5.38
2023-02-09T20:24:14.613Z,5.44
2023-02-09T20:26:44.403Z,5.39
2023-02-09T20:29:12.774Z,5.41
2023-02-09T20:31:42.682Z,5.46
2023-02-09T20:34:13.780Z,5.56
2023-02-09T20:36:46.911Z,5.63
2023-02-09T20:39:17.670Z,5.72
2023-02-09T20:42:06.664Z,5.76
2023-02-09T20:44:53.498Z,5.66
2023-02-09T20:47:21.681Z,5.66
2023-02-09T20:49:49.675Z,5.75
2023-02-09T20:52:18.155Z,5.76
2023-02-09T20:54:48.436Z,5.80
2023-02-09T20:57:16.621Z,5.78
2023-02-09T20:59:44.596Z,5.76
2023-02-09T21:02:13.627Z,5.84
2023-02-09T21:04:41.691Z,5.78
2023-02-09T21:07:09.761Z,5.84
2023-02-09T21:09:38.702Z,5.75
2023-02-09T21:12:08.091Z,5.78
2023-02-09T21:14:43.916Z,5.65
2023-02-09T21:17:12.141Z,5.60
2023-02-09T21:19:40.628Z,5.57
2023-02-09T21:22:08.958Z,5.65
2023-02-09T21:24:38.581Z,5.69
2023-02-09T21:27:08.614Z,5.58
2023-02-09T21:29:37.080Z,5.54
2023-02-09T21:32:07.161Z,5.51
2023-02-09T21:34:35.121Z,5.48
2023-02-09T21:37:03.032Z,5.62
2023-02-09T21:39:31.505Z,5.48
2023-02-09T21:42:16.681Z,5.33
2023-02-09T21:44:45.931Z,5.55
2023-02-09T21:47:13.857Z,5.61
2023-02-09T21:49:41.796Z,5.62
2023-02-09T21:52:11.038Z,5.58
2023-02-09T21:54:41.473Z,5.69
2023-02-09T21:57:09.509Z,5.66
2023-02-09T21:59:37.562Z,5.62
2023-02-09T22:02:08.180Z,5.68
2023-02-09T22:04:36.240Z,5.51
2023-02-09T22:07:04.198Z,5.60
2023-02-09T22:09:32.234Z,5.68
2023-02-09T22:12:00.123Z,5.74
2023-02-09T22:14:28.782Z,5.66
2023-02-09T22:16:58.356Z,5.64
2023-02-09T22:19:27.888Z,5.74
2023-02-09T22:21:57.685Z,5.74
2023-02-09T22:24:26.243Z,5.74
2023-02-09T22:26:54.388Z,5.63
2023-02-09T22:29:22.510Z,5.58
2023-02-09T22:31:50.356Z,5.66
2023-02-09T22:34:18.161Z,5.63
2023-02-09T22:36:47.428Z,5.58
2023-02-09T22:39:15.447Z,5.58
2023-02-09T22:41:47.315Z,5.57
2023-02-09T22:44:17.422Z,5.55
2023-02-09T22:46:46.388Z,5.55
2023-02-09T22:49:17.676Z,5.57
2023-02-09T22:51:48.053Z,5.62
2023-02-09T22:54:18.085Z,5.66
2023-02-09T22:56:46.862Z,5.51
2023-02-09T22:59:16.034Z,5.41
2023-02-09T23:01:44.721Z,5.45
2023-02-09T23:04:13.309Z,5.41
2023-02-09T23:06:41.192Z,5.47
2023-02-09T23:09:11.031Z,5.57
2023-02-09T23:11:39.013Z,5.57
2023-02-09T23:14:11.503Z,5.49
2023-02-09T23:16:41.678Z,5.42
2023-02-09T23:19:16.641Z,5.54
2023-02-09T23:21:46.096Z,5.64
2023-02-09T23:24:16.850Z,5.62
2023-02-09T23:26:45.258Z,5.58
2023-02-09T23:29:15.750Z,5.73
2023-02-09T23:31:45.853Z,5.67
2023-02-09T23:34:16.489Z,5.61
2023-02-09T23:36:44.855Z,5.69
2023-02-09T23:39:17.029Z,5.70
2023-02-09T23:41:45.407Z,5.77
2023-02-09T23:44:13.635Z,5.82
2023-02-09T23:46:42.035Z,5.80
2023-02-09T23:49:10.119Z,5.53
2023-02-09T23:51:38.174Z,5.60
2023-02-09T23:54:07.896Z,5.68
2023-02-09T23:56:40.425Z,5.64
2023-02-09T23:59:12.561Z,5.71
